METAR Reports From Nearby Airports

 

KLUD - Decatur, Texas, USA
Distance from Wildwood: ESE 5mi, 8km
Actualización: Mar 28, 2020 8:35am
Mostly Cloudy
Mostly Cloudy
 Viento del O
Viento: O 12 mph , 19 km/h, Racha: 17 mph , 28 km/h
Temperatura: 63°F , 17°C
Rocío: 34°F , 1°C
Humedad: 34%
Barómetro: 29.84 inHg , 1010.5 hPa
Clouds: Mostly Cloudy
Visibility: 10 miles , 16 km
Cloud details: Mostly Cloudy 7500 ft
2020/03/28 13:35 KLUD 281335Z AUTO 28010G15KT 10SM BKN075 17/01 A2984 RMK AO2 T01730014
KXBP - Bridgeport, Texas, USA
Distance from Wildwood: OSO 11mi, 18km
Actualización: Mar 28, 2020 8:35am

 Viento del calm
Viento: Calma
Visibility: 7 miles , 11 km
2020/03/28 13:35 KXBP 281335Z AUTO 00000KT 7SM -VCTSRA BKN090 BKN120 13/10 A2988 RMK AO2 LTG DSNT E AND S P0007 T01310095
 
K0F2 - Bowie, Texas, USA
Distance from Wildwood: NNO 24mi, 39km
Actualización: Mar 28, 2020 8:35am
Cubierto
Cubierto
 Viento del SO
Viento: SO 6 mph , 9 km/h
Temperatura: 66°F , 19°C
Rocío: 36°F , 2°C
Humedad: 32%
Barómetro: 29.86 inHg , 1011.2 hPa
Clouds: Cubierto
Visibility: 10 miles , 16 km
Cloud details: Cubierto 8500 ft
2020/03/28 13:35 K0F2 281335Z AUTO 22005KT 10SM OVC085 19/02 A2986 RMK AO2 T01900020
KDTO - Denton, Texas, USA
Distance from Wildwood: E 27mi, 44km
Actualización: Mar 28, 2020 8:17am
Nearby thunderstorm, Lluvia débil, Cubierto
Nearby thunderstorm, Lluvia débil, Cubierto
 Viento del calm
Viento: Calma
Temperatura: 63°F , 17°C
Rocío: 48°F , 9°C
Humedad: 59%
Barómetro: 29.83 inHg , 1010.2 hPa
Resumen: Nearby thunderstorm, Lluvia débil
Clouds: Cubierto
Visibility: 8 miles , 13 km
Cloud details: Mostly Cloudy 10000 ft
Cubierto 12000 ft
2020/03/28 13:17 KDTO 281317Z 00000KT 8SM VCTS -RA BKN100 OVC120 17/09 A2983 RMK AO2 LTG DSNT ALQDS RAB1259 TSE11 P0001 T01720089
 
KAFW - Ft Worth/Allianc, Texas, USA
Distance from Wildwood: SE 29mi, 46km
Actualización: Mar 28, 2020 7:53am
Light thunderstorm, Probáblemente lluvioso, Cubierto
Light thunderstorm, Probáblemente lluvioso, Cubierto
 Viento del ONO
Viento: ONO 17 mph , 28 km/h, Racha: 26 mph , 43 km/h
Temperatura: 66°F , 19°C
Rocío: 45°F , 7°C
Humedad: 46%
Barómetro: 29.80 inHg , 1009.1 hPa
Resumen: Light thunderstorm, Probáblemente lluvioso
Clouds: Cubierto
Visibility: 10 miles , 16 km
Cloud details: Few Clouds 2600 ft
Partly Cloudy 3100 ft
Cubierto 13000 ft
2020/03/28 12:53 KAFW 281253Z 30015G23KT 10SM -TSRA FEW026CB SCT031 OVC130 19/07 A2980 RMK AO2 PK WND 30029/1227 LTG DSNT N AND S AND SW SLP081 OCNL LTGIC SW-W TS SW-W MOV NE P0000 T01890072 $
KFTW - Fort Worth, Texas, USA
Distance from Wildwood: SSE 34mi, 55km
Actualización: Mar 28, 2020 8:17am
Thunderstorm rain, Cubierto
Thunderstorm rain, Cubierto
 Viento del ONO
Viento: ONO 18 mph , 30 km/h, Racha: 32 mph , 52 km/h
Temperatura: 57°F , 14°C
Rocío: 46°F , 8°C
Humedad: 67%
Barómetro: 29.82 inHg , 1009.8 hPa
Resumen: Thunderstorm Rain
Clouds: Cubierto
Visibility: 4 miles , 6 km
Cloud details: Few Clouds 2400 ft
Mostly Cloudy 7500 ft
Cubierto 11000 ft
2020/03/28 13:17 KFTW 281317Z 30016G28KT 4SM TSRA FEW024 BKN075 OVC110 14/08 A2982 RMK AO2 PK WND 30028/1310 LTG DSNT ALQDS TSB11 P0005 T01390083
 
KNFW - Fort Worth Nas, Texas, USA
Distance from Wildwood: SSE 36mi, 58km
Actualización: Mar 28, 2020 7:52am
Light thunderstorm, Probáblemente lluvioso, Cubierto
Light thunderstorm, Probáblemente lluvioso, Cubierto
 Viento del NO
Viento: NO 18 mph , 30 km/h, Racha: 37 mph , 59 km/h
Temperatura: 64°F , 18°C
Rocío: 48°F , 9°C
Humedad: 56%
Barómetro: 29.83 inHg , 1010.2 hPa
Resumen: Light thunderstorm, Probáblemente lluvioso
Clouds: Cubierto
Visibility: 10 miles , 16 km
Cloud details: Partly Cloudy 2600 ft
Mostly Cloudy 4000 ft
Cubierto 12000 ft
2020/03/28 12:52 KNFW 281252Z 32016G32KT 10SM -TSRA SCT026CB BKN040 OVC120 18/09 A2983 RMK AO2 PK WND 33033/1241 WSHFT 1234 RAE1156B37 TSB34 PRESRR SLP084 FRQ LTGICCCCG S TS 5 S MOV E P0000 T01780094 VISNO N $
KGLE - Gainesville, Texas, USA
Distance from Wildwood: NE 38mi, 61km
Actualización: Mar 28, 2020 8:35am
Cubierto
Cubierto
 Viento del ONO
Viento: ONO 9 mph , 15 km/h
Temperatura: 61°F , 16°C
Rocío: 45°F , 7°C
Humedad: 55%
Barómetro: 29.82 inHg , 1009.8 hPa
Clouds: Cubierto
Visibility: 10 miles , 16 km
Cloud details: Cubierto 9000 ft
2020/03/28 13:35 KGLE 281335Z AUTO 29008KT 10SM OVC090 16/07 A2982 RMK AO2 T01600066 PWINO
 
KMWL - Mineral Wells, Texas, USA
Distance from Wildwood: SO 41mi, 65km
Actualización: Mar 28, 2020 7:53am
Mostly Cloudy
Mostly Cloudy
 Viento del NNO
Viento: NNO 8 mph , 13 km/h
Temperatura: 64°F , 18°C
Rocío: 39°F , 4°C
Humedad: 40%
Barómetro: 29.83 inHg , 1010.2 hPa
Clouds: Mostly Cloudy
Visibility: 10 miles , 16 km
Cloud details: Partly Cloudy 8000 ft
Mostly Cloudy 9000 ft
2020/03/28 12:53 KMWL 281253Z AUTO 33007KT 10SM SCT080 BKN090 18/04 A2983 RMK AO2 LTG DSNT E-S RAE13 SLP092 P0000 T01780044
KDFW - Dallas/Ft Worth, Texas, USA
Distance from Wildwood: ESE 45mi, 73km
Actualización: Mar 28, 2020 8:06am
Thunderstorm, Cubierto
Thunderstorm, Cubierto
 Viento del ONO
Viento: ONO 25 mph , 41 km/h, Racha: 33 mph , 54 km/h
Temperatura: 72°F , 22°C
Rocío: 64°F , 18°C
Humedad: 78%
Barómetro: 29.74 inHg , 1007.1 hPa
Resumen: Thunderstorm
Clouds: Cubierto
Visibility: 10 miles , 16 km
Cloud details: Few Clouds 2400 ft
Mostly Cloudy 3200 ft
Cubierto 11000 ft
2020/03/28 13:06 KDFW 281306Z 30022G29KT 10SM TS FEW024 BKN032 OVC110CB 22/18 A2974 RMK AO2 PK WND 30029/1303 LTG DSNT ALQDS TSB06 OCNL LTGIC W-NW TS W-NW MOV NE T02170178